createdAt,value
2022-11-02T00:00:34.738Z,87.54
2022-11-02T00:03:03.250Z,87.90
2022-11-02T00:05:33.165Z,87.78
2022-11-02T00:08:01.297Z,87.97
2022-11-02T00:10:29.934Z,88.18
2022-11-02T00:12:58.592Z,87.97
2022-11-02T00:15:29.483Z,88.03
2022-11-02T00:18:02.046Z,87.83
2022-11-02T00:20:30.515Z,88.22
2022-11-02T00:23:03.313Z,88.22
2022-11-02T00:25:31.907Z,88.30
2022-11-02T00:27:59.905Z,89.08
2022-11-02T00:30:27.933Z,89.67
2022-11-02T00:32:57.183Z,89.37
2022-11-02T00:35:25.280Z,90.79
2022-11-02T00:37:53.403Z,90.97
2022-11-02T00:40:23.068Z,91.82
2022-11-02T00:42:51.262Z,91.22
2022-11-02T00:45:19.377Z,91.78
2022-11-02T00:47:47.496Z,92.53
2022-11-02T00:50:15.681Z,92.97
2022-11-02T00:52:44.557Z,93.05
2022-11-02T00:55:13.090Z,92.93
2022-11-02T00:57:43.056Z,93.32
2022-11-02T01:00:14.803Z,93.79
2022-11-02T01:02:43.016Z,93.76
2022-11-02T01:05:12.537Z,94.07
2022-11-02T01:07:40.832Z,94.09
2022-11-02T01:10:10.259Z,93.97
2022-11-02T01:12:38.919Z,94.20
2022-11-02T01:15:10.475Z,94.35
2022-11-02T01:17:39.090Z,94.20
2022-11-02T01:20:08.361Z,94.57
2022-11-02T01:22:36.814Z,94.73
2022-11-02T01:25:05.303Z,95.14
2022-11-02T01:27:33.377Z,95.58
2022-11-02T01:30:01.482Z,96.04
2022-11-02T01:32:31.903Z,96.47
2022-11-02T01:34:59.971Z,96.45
2022-11-02T01:37:28.045Z,96.21
2022-11-02T01:39:56.144Z,96.71
2022-11-02T01:42:26.029Z,96.75
2022-11-02T01:44:54.186Z,97.33
2022-11-02T01:47:28.110Z,97.29
2022-11-02T01:50:03.725Z,97.57
2022-11-02T01:52:36.597Z,98.45
2022-11-02T01:55:10.607Z,99.30
2022-11-02T01:57:41.672Z,98.90
2022-11-02T02:00:12.447Z,98.37
2022-11-02T02:02:46.576Z,98.73
2022-11-02T02:05:18.897Z,98.05
2022-11-02T02:07:47.835Z,98.29
2022-11-02T02:10:16.433Z,98.51
2022-11-02T02:12:45.450Z,98.80
2022-11-02T02:15:14.464Z,98.49
2022-11-02T02:17:49.331Z,98.74
2022-11-02T02:20:38.101Z,99.16
2022-11-02T02:24:00.160Z,98.80
2022-11-02T02:26:52.629Z,98.82
2022-11-02T02:29:23.978Z,99.46
2022-11-02T02:31:59.425Z,99.59
2022-11-02T02:34:35.726Z,99.59
2022-11-02T02:37:08.538Z,99.65
2022-11-02T02:39:44.182Z,99.79
2022-11-02T02:42:20.090Z,100.00
2022-11-02T02:44:56.614Z,99.61
2022-11-02T02:47:28.567Z,99.74
2022-11-02T02:50:02.897Z,99.30
2022-11-02T02:52:34.621Z,99.71
2022-11-02T02:55:05.362Z,99.99
2022-11-02T02:57:36.733Z,99.52
2022-11-02T03:00:14.056Z,100.00
2022-11-02T03:02:42.540Z,100.00
2022-11-02T03:05:24.702Z,100.00
2022-11-02T03:07:53.798Z,100.00
2022-11-02T03:10:29.454Z,100.00
2022-11-02T03:13:10.133Z,100.00
2022-11-02T03:15:43.380Z,100.00
2022-11-02T03:18:25.066Z,100.00
2022-11-02T03:21:04.347Z,100.00
2022-11-02T03:23:36.592Z,100.00
2022-11-02T03:26:09.709Z,100.00
2022-11-02T03:29:00.855Z,100.00
2022-11-02T03:31:39.216Z,100.00
2022-11-02T03:34:18.218Z,100.00
2022-11-02T03:36:49.951Z,100.00
2022-11-02T03:39:21.668Z,100.00
2022-11-02T03:41:53.443Z,100.00
2022-11-02T03:44:25.266Z,100.00
2022-11-02T03:46:59.728Z,100.00
2022-11-02T03:49:29.967Z,100.00
2022-11-02T03:52:01.596Z,100.00
2022-11-02T03:54:42.642Z,100.00
2022-11-02T03:57:17.048Z,100.00
2022-11-02T03:59:45.546Z,100.00
2022-11-02T04:02:17.267Z,100.00
2022-11-02T04:04:53.286Z,100.00
2022-11-02T04:07:25.911Z,100.00
2022-11-02T04:09:54.007Z,100.00
2022-11-02T04:12:38.673Z,100.00
2022-11-02T04:18:11.822Z,100.00
2022-11-02T04:20:40.217Z,100.00
2022-11-02T04:23:25.835Z,100.00
2022-11-02T04:25:55.327Z,100.00
2022-11-02T04:28:23.376Z,100.00
2022-11-02T04:30:51.480Z,100.00
2022-11-02T04:33:35.360Z,100.00
2022-11-02T04:36:04.783Z,100.00
2022-11-02T04:38:41.538Z,100.00
2022-11-02T04:41:28.643Z,100.00
2022-11-02T04:43:56.917Z,100.00
2022-11-02T04:46:26.882Z,100.00
2022-11-02T04:48:56.507Z,100.00
2022-11-02T04:51:27.083Z,100.00
2022-11-02T04:53:56.596Z,100.00
2022-11-02T04:56:25.303Z,100.00
2022-11-02T04:58:54.605Z,100.00
2022-11-02T05:01:25.352Z,100.00
2022-11-02T05:06:42.281Z,100.00
2022-11-02T05:09:11.429Z,100.00
2022-11-02T05:11:39.465Z,100.00
2022-11-02T05:14:07.490Z,100.00
2022-11-02T05:16:35.618Z,100.00
2022-11-02T05:19:06.857Z,100.00
2022-11-02T05:21:37.939Z,100.00
2022-11-02T05:24:08.443Z,100.00
2022-11-02T05:26:36.563Z,100.00
2022-11-02T05:29:04.946Z,100.00
2022-11-02T05:31:33.077Z,100.00
2022-11-02T05:34:01.130Z,100.00
2022-11-02T05:36:29.226Z,100.00
2022-11-02T05:38:57.703Z,100.00
2022-11-02T05:41:27.213Z,100.00
2022-11-02T05:43:55.257Z,100.00
2022-11-02T05:46:23.379Z,100.00
2022-11-02T05:48:51.476Z,100.00
2022-11-02T05:51:19.533Z,100.00
2022-11-02T05:53:47.592Z,100.00
2022-11-02T05:56:18.296Z,100.00
2022-11-02T06:01:23.284Z,100.00
2022-11-02T06:03:53.814Z,100.00
2022-11-02T06:06:22.566Z,100.00
2022-11-02T06:08:50.626Z,100.00
2022-11-02T06:11:18.797Z,100.00
2022-11-02T06:13:52.026Z,100.00
2022-11-02T06:16:23.251Z,100.00
2022-11-02T06:18:52.299Z,100.00
2022-11-02T06:21:20.445Z,100.00
2022-11-02T06:23:49.343Z,100.00
2022-11-02T06:26:17.795Z,100.00
2022-11-02T06:28:45.962Z,100.00
2022-11-02T06:31:17.342Z,100.00
2022-11-02T06:33:45.807Z,100.00
2022-11-02T06:36:13.955Z,100.00
2022-11-02T06:38:42.856Z,100.00
2022-11-02T06:41:11.320Z,100.00
2022-11-02T06:43:39.650Z,100.00
2022-11-02T06:46:08.007Z,99.32
2022-11-02T06:48:37.475Z,99.30
2022-11-02T06:51:06.550Z,98.90
2022-11-02T06:53:35.189Z,98.60
2022-11-02T06:56:03.713Z,97.77
2022-11-02T06:58:32.208Z,96.39
2022-11-02T07:01:02.047Z,95.79
2022-11-02T07:03:31.376Z,93.13
2022-11-02T07:06:01.426Z,92.43
2022-11-02T07:08:30.039Z,91.30
2022-11-02T07:10:59.124Z,91.12
2022-11-02T07:13:27.726Z,90.29
2022-11-02T07:15:56.537Z,90.05
2022-11-02T07:18:24.968Z,89.62
2022-11-02T07:20:53.421Z,87.54
2022-11-02T07:23:24.223Z,87.11
2022-11-02T07:25:52.537Z,86.72
2022-11-02T07:28:20.833Z,85.40
2022-11-02T07:30:49.559Z,84.18
2022-11-02T07:33:17.665Z,84.50
2022-11-02T07:35:48.278Z,83.93
2022-11-02T07:38:16.341Z,83.15
2022-11-02T07:40:50.230Z,82.85
2022-11-02T07:43:18.263Z,80.65
2022-11-02T07:45:46.345Z,78.75
2022-11-02T07:48:14.675Z,77.46
2022-11-02T07:50:42.729Z,77.61
2022-11-02T07:53:11.868Z,74.73
2022-11-02T07:55:40.306Z,75.09
2022-11-02T07:58:13.733Z,70.81
2022-11-02T08:00:43.769Z,69.41
2022-11-02T08:03:14.919Z,70.77
2022-11-02T08:05:44.438Z,70.20
2022-11-02T08:08:15.194Z,70.85
2022-11-02T08:10:44.831Z,69.27
2022-11-02T08:13:16.740Z,69.17
2022-11-02T08:15:45.345Z,68.55
2022-11-02T08:18:17.939Z,67.36
2022-11-02T08:20:47.491Z,66.88
2022-11-02T08:23:16.787Z,66.85
2022-11-02T08:25:46.489Z,65.33
2022-11-02T08:28:18.380Z,65.22
2022-11-02T08:30:46.633Z,65.93
2022-11-02T08:33:16.962Z,65.47
2022-11-02T08:35:46.083Z,63.75
2022-11-02T08:38:14.760Z,63.00
2022-11-02T08:40:43.164Z,62.42
2022-11-02T08:43:13.310Z,62.45
2022-11-02T08:48:33.068Z,59.44
2022-11-02T08:51:02.839Z,59.75
2022-11-02T08:53:30.920Z,59.80
2022-11-02T08:55:59.789Z,58.98
2022-11-02T08:58:27.996Z,58.91
2022-11-02T09:00:58.016Z,57.25
2022-11-02T09:03:27.695Z,57.13
2022-11-02T09:05:59.945Z,56.71
2022-11-02T09:08:28.816Z,55.83
2022-11-02T09:11:01.039Z,55.11
2022-11-02T09:13:29.742Z,54.77
2022-11-02T09:16:01.259Z,54.96
2022-11-02T09:18:30.237Z,53.80
2022-11-02T09:20:58.324Z,52.31
2022-11-02T09:23:26.441Z,52.82
2022-11-02T09:25:54.992Z,52.81
2022-11-02T09:28:23.146Z,52.37
2022-11-02T09:30:51.520Z,53.09
2022-11-02T09:33:21.253Z,53.31
2022-11-02T09:35:50.925Z,52.71
2022-11-02T09:38:19.500Z,52.40
2022-11-02T09:40:56.152Z,51.58
2022-11-02T09:43:36.291Z,51.72
2022-11-02T09:46:08.668Z,50.60
2022-11-02T09:48:43.665Z,49.65
2022-11-02T09:51:15.993Z,49.53
2022-11-02T09:53:54.614Z,49.75
2022-11-02T09:56:23.320Z,48.96
2022-11-02T09:58:58.654Z,48.37
2022-11-02T10:01:39.369Z,45.59
2022-11-02T10:04:31.193Z,45.71
2022-11-02T10:07:06.881Z,44.29
2022-11-02T10:09:44.717Z,44.08
2022-11-02T10:12:17.104Z,44.12
2022-11-02T10:14:54.421Z,43.95
2022-11-02T10:17:26.761Z,43.68
2022-11-02T10:19:57.852Z,43.45
2022-11-02T10:22:30.039Z,43.15
2022-11-02T10:25:02.087Z,43.56
2022-11-02T10:27:36.046Z,42.01
2022-11-02T10:30:07.016Z,40.81
2022-11-02T10:32:37.886Z,39.91
2022-11-02T10:35:33.852Z,40.23
2022-11-02T10:38:20.231Z,40.13
2022-11-02T10:41:07.893Z,39.00
2022-11-02T10:43:52.127Z,37.93
2022-11-02T10:46:38.330Z,36.93
2022-11-02T10:49:14.468Z,36.71
2022-11-02T10:51:44.258Z,34.23
2022-11-02T10:54:17.709Z,33.99
2022-11-02T10:56:50.540Z,32.66
2022-11-02T10:59:20.286Z,30.72
2022-11-02T11:02:04.577Z,30.72
2022-11-02T11:04:34.137Z,29.03
2022-11-02T11:07:08.507Z,29.37
2022-11-02T11:09:46.456Z,28.39
2022-11-02T11:12:21.093Z,28.65
2022-11-02T11:20:36.053Z,27.05
2022-11-02T11:23:32.333Z,27.30
2022-11-02T11:26:02.843Z,27.24
2022-11-02T11:28:33.556Z,26.63
2022-11-02T11:31:08.883Z,26.58
2022-11-02T11:33:44.760Z,26.56
2022-11-02T11:36:21.687Z,26.60
2022-11-02T11:38:53.834Z,26.24
2022-11-02T11:41:22.271Z,26.07
2022-11-02T11:43:52.477Z,26.51
2022-11-02T11:46:20.624Z,26.25
2022-11-02T11:48:51.764Z,26.31
2022-11-02T11:51:29.678Z,26.39
2022-11-02T11:54:28.079Z,26.77
2022-11-02T11:56:58.355Z,26.03
2022-11-02T11:59:32.483Z,26.15
2022-11-02T12:02:03.879Z,26.36
2022-11-02T12:04:36.298Z,25.89
2022-11-02T12:07:36.379Z,26.31
2022-11-02T12:10:19.903Z,26.32
2022-11-02T12:13:00.651Z,25.53
2022-11-02T12:15:41.268Z,25.86
2022-11-02T12:18:35.231Z,25.31
2022-11-02T12:21:15.341Z,26.35
2022-11-02T12:24:03.119Z,25.44
2022-11-02T12:26:48.405Z,24.87
2022-11-02T12:29:35.257Z,24.58
2022-11-02T12:32:10.192Z,24.28
2022-11-02T12:35:23.173Z,22.89
2022-11-02T12:38:02.773Z,24.19
2022-11-02T12:40:43.348Z,24.50
2022-11-02T12:43:32.274Z,23.42
2022-11-02T12:46:05.250Z,22.70
2022-11-02T12:48:46.241Z,22.26
2022-11-02T12:51:19.479Z,22.13
2022-11-02T12:53:50.495Z,21.20
2022-11-02T12:56:24.689Z,20.53
2022-11-02T12:58:54.491Z,20.05
2022-11-02T13:01:29.942Z,19.76
2022-11-02T13:04:04.843Z,19.65
2022-11-02T13:06:38.374Z,19.44
2022-11-02T13:09:11.065Z,18.86
2022-11-02T13:11:42.859Z,18.74
2022-11-02T13:14:15.994Z,19.32
2022-11-02T13:16:50.230Z,19.59
2022-11-02T13:19:23.599Z,19.77
2022-11-02T13:21:55.461Z,19.78
2022-11-02T13:24:31.766Z,19.96
2022-11-02T13:27:14.130Z,20.11
2022-11-02T13:29:53.061Z,19.78
2022-11-02T13:32:33.573Z,19.89
2022-11-02T13:35:07.841Z,19.56
2022-11-02T13:37:39.517Z,19.48
2022-11-02T13:40:21.647Z,19.62
2022-11-02T13:43:14.699Z,19.42
2022-11-02T13:45:55.445Z,19.22
2022-11-02T13:48:52.616Z,18.98
2022-11-02T13:51:27.662Z,19.65
2022-11-02T13:54:02.182Z,19.76
2022-11-02T13:56:31.491Z,19.64
2022-11-02T13:59:03.374Z,19.26
2022-11-02T14:01:37.199Z,19.15
2022-11-02T14:04:09.057Z,19.50
2022-11-02T14:06:49.044Z,19.61
2022-11-02T14:09:30.840Z,19.64
2022-11-02T14:12:41.808Z,19.65
2022-11-02T14:15:42.248Z,19.75
2022-11-02T14:18:33.726Z,20.20
2022-11-02T14:21:47.557Z,20.26
2022-11-02T14:24:59.795Z,20.56
2022-11-02T14:27:32.032Z,20.54
2022-11-02T14:30:00.457Z,20.52
2022-11-02T14:32:47.373Z,19.97
2022-11-02T14:35:32.242Z,20.39
2022-11-02T14:38:22.733Z,20.52
2022-11-02T14:41:00.120Z,21.07
2022-11-02T14:43:49.798Z,21.06
2022-11-02T14:46:34.463Z,21.43
2022-11-02T14:49:04.852Z,21.66
2022-11-02T14:51:37.983Z,21.70
2022-11-02T14:54:16.038Z,21.84
2022-11-02T14:56:54.748Z,21.93
2022-11-02T14:59:27.618Z,21.76
2022-11-02T15:01:58.987Z,22.27
2022-11-02T15:04:29.598Z,22.34
2022-11-02T15:07:02.045Z,22.77
2022-11-02T15:09:53.116Z,22.55
2022-11-02T15:12:37.709Z,22.98
2022-11-02T15:15:38.656Z,23.04
2022-11-02T15:18:25.432Z,23.08
2022-11-02T15:21:27.199Z,23.51
2022-11-02T15:24:18.040Z,23.29
2022-11-02T15:26:50.953Z,23.63
2022-11-02T15:29:34.579Z,24.11
2022-11-02T15:32:04.975Z,24.29
2022-11-02T15:34:37.786Z,24.65
2022-11-02T15:37:06.404Z,24.96
2022-11-02T15:39:36.717Z,24.97
2022-11-02T15:42:13.588Z,25.61
2022-11-02T15:45:27.001Z,25.86
2022-11-02T15:48:16.384Z,26.00
2022-11-02T15:50:55.771Z,26.29
2022-11-02T15:53:38.369Z,26.68
2022-11-02T15:56:28.694Z,26.53
2022-11-02T15:59:15.984Z,26.35
2022-11-02T16:01:44.252Z,26.71
2022-11-02T16:04:22.112Z,26.71
2022-11-02T16:06:50.567Z,27.10
2022-11-02T16:09:33.248Z,27.09
2022-11-02T16:12:13.119Z,27.26
2022-11-02T16:14:41.913Z,27.69
2022-11-02T16:17:20.956Z,27.94
2022-11-02T16:19:49.600Z,28.15
2022-11-02T16:22:28.079Z,29.02
2022-11-02T16:24:56.463Z,28.64
2022-11-02T16:27:26.418Z,28.65
2022-11-02T16:29:54.502Z,28.51
2022-11-02T16:32:22.647Z,28.75
2022-11-02T16:34:51.201Z,28.40
2022-11-02T16:37:21.610Z,28.53
2022-11-02T16:39:50.314Z,28.95
2022-11-02T16:42:22.998Z,29.08
2022-11-02T16:44:58.032Z,29.30
2022-11-02T16:47:41.481Z,29.53
2022-11-02T16:50:25.308Z,29.69
2022-11-02T16:52:58.955Z,29.73
2022-11-02T16:55:41.782Z,29.96
2022-11-02T16:58:20.411Z,30.28
2022-11-02T17:00:59.652Z,30.28
2022-11-02T17:03:32.478Z,30.36
2022-11-02T17:06:03.398Z,30.74
2022-11-02T17:08:34.541Z,30.92
2022-11-02T17:11:06.375Z,31.36
2022-11-02T17:13:37.793Z,31.84
2022-11-02T17:16:11.791Z,31.93
2022-11-02T17:18:40.127Z,31.84
2022-11-02T17:21:32.387Z,32.00
2022-11-02T17:24:00.933Z,32.41
2022-11-02T17:26:35.317Z,32.16
2022-11-02T17:29:05.069Z,32.05
2022-11-02T17:31:36.599Z,32.68
2022-11-02T17:34:11.566Z,32.85
2022-11-02T17:36:43.938Z,32.33
2022-11-02T17:39:14.891Z,31.97
2022-11-02T17:42:01.046Z,31.62
2022-11-02T17:44:29.228Z,31.38
2022-11-02T17:46:58.720Z,31.60
2022-11-02T17:49:26.779Z,31.21
2022-11-02T17:51:56.706Z,31.49
2022-11-02T17:54:24.875Z,31.19
2022-11-02T17:56:54.240Z,31.50
2022-11-02T17:59:22.288Z,31.93
2022-11-02T18:01:50.445Z,32.18
2022-11-02T18:04:20.118Z,32.28
2022-11-02T18:06:48.127Z,32.50
2022-11-02T18:09:19.433Z,32.72
2022-11-02T18:11:49.146Z,32.77
2022-11-02T18:14:18.146Z,33.01
2022-11-02T18:16:48.102Z,32.99
2022-11-02T18:19:17.171Z,33.28
2022-11-02T18:21:47.149Z,33.48
2022-11-02T18:24:15.448Z,33.54
2022-11-02T18:26:45.872Z,33.74
2022-11-02T18:29:15.183Z,33.59
2022-11-02T18:31:43.419Z,33.80
2022-11-02T18:34:11.693Z,33.85
2022-11-02T18:36:41.038Z,34.09
2022-11-02T18:39:10.613Z,34.00
2022-11-02T18:41:40.440Z,33.86
2022-11-02T18:44:14.898Z,34.23
2022-11-02T18:46:43.489Z,34.16
2022-11-02T18:49:11.570Z,34.37
2022-11-02T18:51:43.171Z,34.38
2022-11-02T18:54:13.274Z,34.60
2022-11-02T18:56:41.655Z,34.65
2022-11-02T18:59:09.808Z,34.96
2022-11-02T19:01:38.371Z,34.93
2022-11-02T19:04:06.775Z,35.01
2022-11-02T19:06:52.965Z,35.11
2022-11-02T19:09:26.968Z,35.28
2022-11-02T19:12:01.992Z,35.18
2022-11-02T19:14:32.094Z,35.10
2022-11-02T19:17:00.322Z,35.03
2022-11-02T19:19:28.613Z,34.89
2022-11-02T19:21:56.734Z,34.78
2022-11-02T19:24:26.645Z,34.36
2022-11-02T19:26:55.124Z,34.64
2022-11-02T19:29:23.168Z,34.41
2022-11-02T19:31:51.338Z,34.56
2022-11-02T19:34:29.213Z,34.71
2022-11-02T19:36:57.700Z,35.03
2022-11-02T19:39:28.165Z,34.85
2022-11-02T19:41:56.286Z,34.87
2022-11-02T19:44:24.484Z,35.17
2022-11-02T19:46:53.406Z,35.48
2022-11-02T19:49:22.214Z,35.73
2022-11-02T19:51:51.947Z,35.63
2022-11-02T19:54:20.782Z,35.83
2022-11-02T19:56:50.461Z,35.86
2022-11-02T19:59:19.985Z,36.32
2022-11-02T20:01:50.876Z,36.57
2022-11-02T20:04:19.423Z,36.73
2022-11-02T20:06:47.446Z,36.73
2022-11-02T20:09:17.861Z,37.13
2022-11-02T20:11:47.036Z,37.27
2022-11-02T20:14:18.695Z,37.53
2022-11-02T20:16:58.615Z,37.67
2022-11-02T20:19:36.179Z,38.02
2022-11-02T20:22:04.438Z,38.06
2022-11-02T20:24:35.740Z,38.42
2022-11-02T20:27:06.745Z,38.24
2022-11-02T20:29:36.446Z,38.49
2022-11-02T20:32:10.191Z,38.38
2022-11-02T20:34:38.347Z,38.49
2022-11-02T20:37:07.506Z,38.45
2022-11-02T20:39:35.694Z,38.30
2022-11-02T20:42:03.775Z,38.52
2022-11-02T20:44:32.320Z,38.33
2022-11-02T20:47:02.039Z,38.35
2022-11-02T20:49:49.421Z,38.37
2022-11-02T20:52:18.912Z,38.21
2022-11-02T20:54:47.348Z,38.00
2022-11-02T20:57:15.432Z,38.12
2022-11-02T20:59:43.596Z,38.08
2022-11-02T21:02:13.434Z,38.25
2022-11-02T21:04:41.717Z,38.36
2022-11-02T21:07:09.941Z,38.37
2022-11-02T21:09:37.983Z,38.20
2022-11-02T21:12:23.944Z,38.21
2022-11-02T21:14:52.010Z,38.08
2022-11-02T21:17:21.482Z,38.23
2022-11-02T21:19:54.214Z,38.36
2022-11-02T21:22:26.230Z,38.48
2022-11-02T21:24:54.414Z,38.88
2022-11-02T21:27:23.123Z,38.89
2022-11-02T21:29:51.094Z,39.03
2022-11-02T21:32:19.219Z,39.38
2022-11-02T21:34:48.664Z,39.45
2022-11-02T21:37:16.696Z,39.52
2022-11-02T21:39:44.876Z,39.93
2022-11-02T21:42:12.956Z,40.05
2022-11-02T21:44:41.005Z,39.98
2022-11-02T21:47:09.434Z,40.12
2022-11-02T21:49:37.602Z,40.30
2022-11-02T21:52:07.074Z,40.49
2022-11-02T21:54:35.188Z,40.62
2022-11-02T21:57:03.299Z,40.50
2022-11-02T21:59:31.371Z,40.63
2022-11-02T22:01:59.614Z,40.94
2022-11-02T22:04:31.154Z,40.88
2022-11-02T22:07:00.254Z,40.93
2022-11-02T22:09:30.191Z,40.67
2022-11-02T22:12:16.158Z,40.56
2022-11-02T22:14:45.206Z,40.52
2022-11-02T22:17:43.385Z,40.30
2022-11-02T22:20:04.263Z,39.85
2022-11-02T22:22:32.330Z,39.59
2022-11-02T22:25:01.788Z,39.74
2022-11-02T22:27:30.017Z,39.65
2022-11-02T22:29:58.066Z,39.40
2022-11-02T22:32:26.156Z,38.95
2022-11-02T22:34:54.222Z,38.71
2022-11-02T22:37:45.064Z,38.77
2022-11-02T22:40:14.736Z,38.79
2022-11-02T22:42:42.814Z,38.97
2022-11-02T22:45:12.052Z,39.00
2022-11-02T22:47:40.212Z,39.23
2022-11-02T22:50:09.138Z,39.04
2022-11-02T22:52:37.204Z,39.27
2022-11-02T22:55:05.729Z,39.50
2022-11-02T22:57:35.167Z,39.93
2022-11-02T23:00:03.319Z,40.23
2022-11-02T23:02:31.398Z,40.07
2022-11-02T23:04:59.389Z,40.00
2022-11-02T23:07:27.414Z,40.33
2022-11-02T23:09:55.443Z,40.41
2022-11-02T23:12:22.447Z,40.83
2022-11-02T23:14:51.934Z,40.89
2022-11-02T23:17:19.928Z,40.73
2022-11-02T23:19:47.113Z,40.43
2022-11-02T23:22:44.126Z,40.81
2022-11-02T23:25:12.584Z,40.57
2022-11-02T23:27:56.960Z,40.76
2022-11-02T23:30:45.132Z,40.59
2022-11-02T23:33:13.435Z,40.66
2022-11-02T23:35:58.748Z,40.84
2022-11-02T23:38:47.407Z,40.84
2022-11-02T23:41:15.636Z,40.57
2022-11-02T23:43:43.709Z,40.55
2022-11-02T23:46:13.230Z,40.29
2022-11-02T23:48:42.846Z,40.05
2022-11-02T23:51:29.131Z,39.72
2022-11-02T23:54:22.798Z,39.43
2022-11-02T23:56:51.134Z,39.29
2022-11-02T23:59:19.755Z,39.03
